Time;durP1;ratioP1;P1;durP2;ratioP2;P2;SDS_P1;SDS_P2;PMS_P1;PMS_P2;Temp;Humidity;BMP_temperature;BMP_pressure;BME280_temperature;BME280_humidity;BME280_pressure;Samples;Min_cycle;Max_cycle;Signal;HPM_P1;HPM_P2
2022/12/18 00:02:16;;;;;;;14.30;5.82;;;;;;;-1.93;81.94;99050.00;5100549;28;20062;-42
2022/12/18 00:04:42;;;;;;;10.52;5.60;;;;;;;-2.10;82.02;99020.22;5091115;28;20508;-44
2022/12/18 00:07:08;;;;;;;10.32;5.82;;;;;;;-1.94;82.11;99038.16;5091387;28;20427;-44
2022/12/18 00:09:34;;;;;;;12.00;6.00;;;;;;;-1.90;82.10;99036.47;5109016;28;20039;-43
2022/12/18 00:12:00;;;;;;;11.65;5.68;;;;;;;-1.90;82.12;99022.03;5103822;28;20058;-42
2022/12/18 00:14:26;;;;;;;11.10;5.80;;;;;;;-1.88;82.14;99020.31;5105485;28;20505;-46
2022/12/18 00:16:52;;;;;;;12.57;5.68;;;;;;;-1.88;82.03;99014.38;5100859;28;20047;-43
2022/12/18 00:19:18;;;;;;;12.05;6.03;;;;;;;-1.87;81.95;99010.97;5090965;28;20062;-44
2022/12/18 00:21:44;;;;;;;11.25;5.65;;;;;;;-2.20;81.81;98945.50;5089605;28;20036;-44
2022/12/18 00:24:10;;;;;;;11.95;5.93;;;;;;;-1.98;81.83;98982.06;5091041;28;20192;-45
2022/12/18 00:26:38;;;;;;;14.90;5.75;;;;;;;-1.84;81.84;99003.38;5092985;28;20043;-44
2022/12/18 00:29:14;;;;;;;11.63;5.55;;;;;;;-1.85;81.83;98999.97;5109724;28;20059;-43
2022/12/18 00:31:43;;;;;;;11.35;5.97;;;;;;;-1.82;81.97;98988.94;5090668;28;20475;-45
2022/12/18 00:34:11;;;;;;;11.45;6.18;;;;;;;-2.11;81.61;98945.53;5097692;28;20032;-50
2022/12/18 00:36:39;;;;;;;12.63;6.15;;;;;;;-1.84;81.81;98986.41;5096214;28;20040;-44
2022/12/18 00:39:06;;;;;;;11.10;5.75;;;;;;;-1.83;81.70;98977.88;5098021;28;20070;-43
2022/12/18 00:44:18;;;;;;;12.75;6.80;;;;;;;-1.84;81.60;98976.22;5086027;28;20177;-43
2022/12/18 00:46:45;;;;;;;10.38;5.90;;;;;;;-1.85;81.65;98982.16;5090410;28;20038;-44
2022/12/18 00:49:11;;;;;;;12.40;6.03;;;;;;;-1.82;81.39;98968.56;5062559;28;20506;-44
2022/12/18 00:51:37;;;;;;;13.07;7.05;;;;;;;-2.01;81.54;98939.63;5109360;28;20043;-44
2022/12/18 00:54:03;;;;;;;11.38;6.00;;;;;;;-1.83;81.36;98962.59;5093357;27;20525;-43
2022/12/18 00:56:30;;;;;;;10.18;5.85;;;;;;;-1.90;81.30;98958.34;5073521;28;20118;-43
2022/12/18 00:58:56;;;;;;;10.02;5.55;;;;;;;-1.82;81.16;98959.22;5110303;28;20446;-44
2022/12/18 01:01:22;;;;;;;10.82;5.60;;;;;;;-1.79;81.16;98959.25;5079669;28;20043;-44
2022/12/18 01:03:48;;;;;;;10.98;5.70;;;;;;;-1.79;80.93;98956.69;5086537;28;20043;-44
2022/12/18 01:06:16;;;;;;;10.30;6.18;;;;;;;-1.81;80.65;98958.38;5094944;28;20039;-43
2022/12/18 01:08:42;;;;;;;12.95;6.78;;;;;;;-2.02;80.38;98912.47;5096508;28;20105;-43
2022/12/18 01:11:18;;;;;;;10.57;5.53;;;;;;;-1.86;80.46;98943.91;5109145;28;20526;-43
2022/12/18 01:13:44;;;;;;;11.57;6.00;;;;;;;-1.90;80.51;98935.44;5107753;28;20460;-44
2022/12/18 01:16:15;;;;;;;10.57;6.00;;;;;;;-1.87;80.43;98935.41;5090983;28;20046;-48
2022/12/18 01:18:41;;;;;;;11.00;6.22;;;;;;;-1.99;80.33;98904.81;5102316;28;20130;-44
2022/12/18 01:21:09;;;;;;;11.38;6.00;;;;;;;-1.89;80.03;98928.63;5106371;28;20130;-43
2022/12/18 01:23:37;;;;;;;8.60;5.53;;;;;;;-1.91;80.15;98910.78;5105375;28;20070;-45
2022/12/18 01:26:12;;;;;;;12.80;5.80;;;;;;;-1.92;79.88;98911.63;5095089;28;20489;-44
2022/12/18 01:28:38;;;;;;;11.95;4.85;;;;;;;-1.97;79.69;98909.91;5100229;28;20043;-42
2022/12/18 01:31:18;;;;;;;8.68;4.80;;;;;;;-1.95;79.72;98914.19;5108752;28;20047;-43
2022/12/18 01:33:44;;;;;;;11.02;5.20;;;;;;;-1.96;79.65;98912.47;5107985;28;20105;-42
2022/12/18 01:36:24;;;;;;;13.60;5.15;;;;;;;-1.96;79.71;98911.63;5092644;28;20126;-42
2022/12/18 01:38:50;;;;;;;9.98;5.28;;;;;;;-2.12;79.64;98892.91;5051537;28;20036;-45
2022/12/18 01:41:22;;;;;;;12.73;5.38;;;;;;;-1.93;79.55;98925.22;5105552;28;20073;-44
2022/12/18 01:43:57;;;;;;;10.98;5.55;;;;;;;-1.97;79.68;98920.97;5092388;28;20048;-45
2022/12/18 01:46:24;;;;;;;7.90;4.53;;;;;;;-2.21;79.48;98867.41;5074596;28;20529;-43
2022/12/18 01:48:55;;;;;;;11.32;5.60;;;;;;;-2.00;79.52;98905.69;5096126;28;20043;-43
2022/12/18 01:51:21;;;;;;;11.70;5.88;;;;;;;-2.02;79.25;98911.59;5086730;28;20045;-45
2022/12/18 01:53:47;;;;;;;9.40;4.93;;;;;;;-2.16;79.56;98874.22;5076905;28;20045;-44
2022/12/18 01:56:15;;;;;;;12.10;4.95;;;;;;;-2.03;79.20;98915.00;5081041;28;20055;-44
2022/12/18 01:59:06;;;;;;;12.10;4.25;;;;;;;-2.06;79.12;98903.13;5120946;27;20520;-45
2022/12/18 02:01:32;;;;;;;9.63;4.88;;;;;;;-2.03;79.19;98913.28;5099811;28;20428;-44
2022/12/18 02:04:24;;;;;;;10.27;5.18;;;;;;;-2.04;79.10;98914.13;5108013;28;20039;-44
2022/12/18 02:07:01;;;;;;;15.68;7.38;;;;;;;-2.23;78.98;98882.69;5094111;28;20050;-43
2022/12/18 02:09:34;;;;;;;9.68;5.10;;;;;;;-2.15;78.92;98890.38;5097060;28;20063;-45
2022/12/18 02:12:10;;;;;;;11.02;4.82;;;;;;;-2.02;79.00;98906.50;5091550;28;20107;-43
2022/12/18 02:15:24;;;;;;;10.20;5.25;;;;;;;-2.00;79.01;98907.38;5091402;28;20130;-42
2022/12/18 02:18:06;;;;;;;12.30;6.30;;;;;;;-2.00;78.87;98898.03;5078533;28;20039;-43
2022/12/18 02:20:36;;;;;;;10.80;5.28;;;;;;;-1.96;78.80;98909.94;5087982;28;20051;-44
2022/12/18 02:23:01;;;;;;;;;;;;;;;-1.92;79.01;98911.63;5109160;28;20514;-44
2022/12/18 02:25:36;;;;;;;11.13;5.47;;;;;;;-1.95;78.89;98919.28;5084851;28;19923;-44
2022/12/18 02:28:04;;;;;;;12.75;5.63;;;;;;;-1.94;78.94;98930.31;5093846;28;20051;-43
2022/12/18 02:30:32;;;;;;;13.52;5.95;;;;;;;-1.92;79.00;98926.06;5089368;28;20093;-42
2022/12/18 02:32:59;;;;;;;10.60;5.43;;;;;;;-1.97;78.98;98915.88;5071701;28;20050;-43
2022/12/18 02:35:28;;;;;;;12.20;6.28;;;;;;;-2.07;78.54;98900.56;5070929;28;20040;-43
2022/12/18 02:37:57;;;;;;;9.07;5.00;;;;;;;-2.09;78.56;98898.00;5066297;28;20127;-43
2022/12/18 02:40:24;;;;;;;10.48;5.45;;;;;;;-1.98;78.89;98914.16;5056207;28;20036;-42
2022/12/18 02:42:51;;;;;;;10.98;5.50;;;;;;;-2.29;78.74;98866.53;5085850;28;20036;-43
2022/12/18 02:45:18;;;;;;;11.32;5.13;;;;;;;-1.97;78.45;98917.56;5068265;28;20051;-42
2022/12/18 02:47:47;;;;;;;11.68;5.25;;;;;;;-1.94;78.51;98909.94;5089329;28;20438;-43
2022/12/18 02:50:25;;;;;;;21.92;6.03;;;;;;;-1.94;78.42;98909.94;5089154;28;20043;-43
2022/12/18 02:53:11;;;;;;;11.10;5.20;;;;;;;-1.94;78.09;98918.44;5105752;28;20047;-43
2022/12/18 02:55:40;;;;;;;10.77;5.32;;;;;;;-1.96;78.02;98915.03;5101501;28;20040;-42
2022/12/18 02:58:27;;;;;;;16.70;5.70;;;;;;;-1.94;77.91;98909.94;5096419;28;20067;-43
2022/12/18 03:01:01;;;;;;;7.83;4.10;;;;;;;-1.97;77.85;98913.31;5111812;28;20104;-43
2022/12/18 03:03:35;;;;;;;9.95;4.53;;;;;;;-1.99;77.70;98904.81;5111673;28;20054;-43
2022/12/18 03:06:10;;;;;;;10.77;5.13;;;;;;;-2.00;77.63;98908.22;5086916;28;20039;-43
2022/12/18 03:08:39;;;;;;;8.02;4.53;;;;;;;-2.02;77.64;98907.38;5061103;28;20059;-44
2022/12/18 03:11:08;;;;;;;8.85;4.47;;;;;;;-2.03;77.73;98909.91;5106974;28;20602;-41
2022/12/18 03:13:48;;;;;;;7.95;4.47;;;;;;;-2.05;77.73;98901.41;5090956;28;20024;-43
2022/12/18 03:16:23;;;;;;;8.68;4.70;;;;;;;-2.07;77.63;98895.47;5073616;28;20093;-42
2022/12/18 03:18:53;;;;;;;9.70;4.80;;;;;;;-2.08;77.56;98903.94;5101435;28;20047;-43
2022/12/18 03:21:21;;;;;;;10.23;4.65;;;;;;;-2.10;77.68;98900.56;5112467;28;20058;-43
2022/12/18 03:23:49;;;;;;;8.50;4.10;;;;;;;-2.10;77.47;98903.09;5072058;28;20112;-42
2022/12/18 03:26:19;;;;;;;9.13;4.43;;;;;;;-2.12;77.33;98900.53;5106103;28;20376;-43
2022/12/18 03:28:59;;;;;;;7.90;4.40;;;;;;;-2.31;77.82;98868.25;5082930;28;20039;-44
2022/12/18 03:31:27;;;;;;;9.32;4.75;;;;;;;-2.16;77.71;98901.38;5111138;28;20055;-43
2022/12/18 03:33:59;;;;;;;8.95;4.53;;;;;;;-2.14;77.53;98904.75;5112223;28;20054;-42
2022/12/18 03:36:33;;;;;;;9.50;5.13;;;;;;;-2.13;77.72;98909.03;5107022;28;20047;-43
2022/12/18 03:39:01;;;;;;;9.65;4.50;;;;;;;-2.11;77.62;98920.06;5078480;28;20056;-43
2022/12/18 03:41:37;;;;;;;8.98;4.75;;;;;;;-2.15;77.62;98921.72;5070077;28;20131;-42
2022/12/18 03:44:47;;;;;;;7.97;4.20;;;;;;;-2.16;77.43;98920.06;5088742;28;20044;-42
2022/12/18 03:48:02;;;;;;;8.13;4.18;;;;;;;-2.20;77.37;98918.31;5083691;28;20062;-42
2022/12/18 03:50:43;;;;;;;12.82;4.65;;;;;;;-2.34;77.20;98894.50;5046297;28;20450;-42
2022/12/18 03:53:41;;;;;;;9.02;4.30;;;;;;;-2.25;77.58;98909.00;5106742;28;20039;-41
2022/12/18 03:56:08;;;;;;;9.45;4.35;;;;;;;-2.44;77.41;98880.06;5077698;28;20051;-43
2022/12/18 03:58:39;;;;;;;7.68;4.13;;;;;;;-2.27;77.52;98903.03;5077111;28;20445;-42
2022/12/18 04:01:16;;;;;;;10.27;4.68;;;;;;;-2.25;77.46;98901.34;5088595;27;20434;-42
2022/12/18 04:03:43;;;;;;;11.27;5.00;;;;;;;-2.28;77.72;98899.63;5108180;28;20039;-41
2022/12/18 04:06:11;;;;;;;12.52;4.70;;;;;;;-2.47;77.65;98876.66;5074740;28;20047;-43
2022/12/18 04:08:39;;;;;;;8.15;4.32;;;;;;;-2.26;77.88;98913.22;5092001;28;20070;-42
2022/12/18 04:11:07;;;;;;;9.15;4.70;;;;;;;-2.27;77.69;98905.56;5091838;28;20039;-42
2022/12/18 04:13:37;;;;;;;9.95;4.43;;;;;;;-2.34;77.74;98897.06;5093344;28;20104;-51
2022/12/18 04:16:09;;;;;;;8.93;4.28;;;;;;;-2.31;77.95;98906.41;5107642;28;20108;-43
2022/12/18 04:18:37;;;;;;;7.03;4.10;;;;;;;-2.31;77.96;98919.16;5085626;28;20438;-42
2022/12/18 04:21:03;;;;;;;7.05;4.15;;;;;;;-2.31;77.76;98925.09;5089246;28;20059;-41
2022/12/18 04:23:29;;;;;;;10.10;3.88;;;;;;;-2.32;77.62;98933.56;5090496;28;20044;-43
2022/12/18 04:25:58;;;;;;;9.23;4.90;;;;;;;-2.35;77.72;98928.44;5069665;28;20201;-43
2022/12/18 04:28:42;;;;;;;10.15;4.50;;;;;;;-2.37;77.28;98936.94;5089721;28;20185;-43
2022/12/18 04:31:09;;;;;;;7.47;4.28;;;;;;;-2.35;77.30;98946.25;5105454;28;20575;-43
2022/12/18 04:33:35;;;;;;;12.02;4.55;;;;;;;-2.70;77.59;98892.66;5105173;28;20040;-43
2022/12/18 04:36:01;;;;;;;12.00;4.85;;;;;;;-2.32;77.57;98960.69;5099421;28;20046;-43
2022/12/18 04:38:27;;;;;;;9.60;4.32;;;;;;;-2.31;77.65;98977.69;5108410;28;20046;-42
2022/12/18 04:41:01;;;;;;;9.10;3.70;;;;;;;-2.32;77.55;98996.34;5105720;28;20043;-43
2022/12/18 04:43:27;;;;;;;7.10;3.75;;;;;;;-2.34;77.33;98987.84;5097225;28;20044;-42
2022/12/18 04:45:53;;;;;;;7.22;4.10;;;;;;;-2.32;77.32;98983.63;5104918;28;20055;-41
2022/12/18 04:48:20;;;;;;;8.18;4.28;;;;;;;-2.36;77.50;98977.66;5094278;28;20399;-41
2022/12/18 04:50:46;;;;;;;8.73;4.35;;;;;;;-2.34;77.40;98982.75;5099574;28;20061;-41
2022/12/18 04:53:12;;;;;;;9.45;4.18;;;;;;;-2.39;77.23;98989.50;5095050;28;20032;-42
2022/12/18 04:55:38;;;;;;;7.68;4.10;;;;;;;-2.41;77.30;98993.75;5088006;28;20096;-43
2022/12/18 04:58:04;;;;;;;7.70;4.18;;;;;;;-2.42;77.26;99000.53;5104126;28;20511;-42
2022/12/18 05:00:30;;;;;;;8.77;4.93;;;;;;;-2.41;77.08;98981.03;5110508;28;20044;-42
2022/12/18 05:02:56;;;;;;;9.43;4.68;;;;;;;-2.40;77.38;98981.00;5090440;28;20039;-43
2022/12/18 05:05:21;;;;;;;10.73;4.43;;;;;;;-2.40;77.29;98982.69;5071007;28;20067;-42
2022/12/18 05:07:49;;;;;;;10.15;4.63;;;;;;;-2.42;77.25;98979.31;5098702;28;20064;-42
2022/12/18 05:10:15;;;;;;;6.80;3.70;;;;;;;-2.52;77.08;98970.78;5101886;28;20043;-43
2022/12/18 05:12:57;;;;;;;9.70;4.32;;;;;;;-2.83;77.35;98931.56;5092212;28;20032;-42
2022/12/18 05:15:28;;;;;;;16.13;5.68;;;;;;;-2.56;77.72;98974.97;5089770;28;20036;-43
2022/12/18 05:17:53;;;;;;;8.88;4.05;;;;;;;-2.55;77.32;98988.56;5098026;28;20031;-42
2022/12/18 05:20:19;;;;;;;11.43;4.22;;;;;;;-2.57;77.68;98986.03;5090335;28;20051;-44
2022/12/18 05:22:45;;;;;;;8.02;4.15;;;;;;;-2.72;77.42;98962.16;5088345;28;20046;-43
2022/12/18 05:25:11;;;;;;;10.77;4.40;;;;;;;-2.51;77.57;98997.91;5097895;28;20518;-43
2022/12/18 05:27:37;;;;;;;9.35;4.32;;;;;;;-2.72;77.67;98959.63;5107823;28;20035;-42
2022/12/18 05:30:03;;;;;;;8.45;4.00;;;;;;;-2.73;77.53;98976.56;5094696;28;20511;-42
2022/12/18 05:32:30;;;;;;;10.35;4.47;;;;;;;-2.57;77.47;99010.59;5089705;28;20498;-42
2022/12/18 05:34:57;;;;;;;7.40;4.30;;;;;;;-2.61;77.88;99009.72;5102090;28;20067;-42
2022/12/18 05:37:23;;;;;;;12.02;4.63;;;;;;;-2.55;77.95;99019.09;5097405;28;20035;-41
2022/12/18 05:39:49;;;;;;;8.55;4.05;;;;;;;-2.58;77.44;99014.84;5097845;28;20043;-42
2022/12/18 05:42:14;;;;;;;8.60;4.20;;;;;;;-2.59;77.37;99025.84;5098444;28;20040;-43
2022/12/18 05:44:40;;;;;;;7.28;3.92;;;;;;;-2.58;76.99;99034.34;5078141;28;20036;-43
2022/12/18 05:47:06;;;;;;;12.35;4.80;;;;;;;-2.62;76.73;99038.53;5067874;28;20045;-41
2022/12/18 05:49:32;;;;;;;7.75;3.70;;;;;;;-2.63;76.93;99044.50;5076864;28;20048;-43
2022/12/18 05:51:58;;;;;;;11.23;3.65;;;;;;;-2.76;76.86;99024.00;5089257;28;20044;-42
2022/12/18 05:54:24;;;;;;;10.02;4.35;;;;;;;-2.64;76.62;99047.88;5092102;28;20039;-42
2022/12/18 05:56:50;;;;;;;9.10;4.43;;;;;;;-2.82;76.48;99034.97;5090366;28;20142;-42
2022/12/18 05:59:16;;;;;;;7.38;3.92;;;;;;;-2.81;75.95;99025.66;5097360;28;20439;-41
2022/12/18 06:01:42;;;;;;;9.07;3.85;;;;;;;-2.64;76.02;99063.13;5089091;28;20399;-41
2022/12/18 06:04:08;;;;;;;10.07;4.35;;;;;;;-2.61;76.02;99062.28;5082885;28;20096;-41
2022/12/18 06:06:34;;;;;;;9.13;4.40;;;;;;;-2.60;75.75;99069.09;5093875;28;20515;-42
2022/12/18 06:09:01;;;;;;;7.55;3.83;;;;;;;-2.61;75.89;99068.22;5088822;28;20101;-41
2022/12/18 06:11:27;;;;;;;8.55;3.90;;;;;;;-2.62;75.72;99060.59;5101861;28;20151;-44
2022/12/18 06:13:54;;;;;;;7.82;4.35;;;;;;;-2.59;75.86;99076.75;5079396;28;20973;-43
2022/12/18 06:16:20;;;;;;;8.40;4.15;;;;;;;-2.60;75.91;99077.56;5091657;28;20071;-44
2022/12/18 06:18:46;;;;;;;7.18;3.80;;;;;;;-2.74;76.41;99066.44;5071830;28;20064;-43
2022/12/18 06:21:12;;;;;;;9.82;4.50;;;;;;;-2.59;75.92;99086.06;5091347;28;20056;-43
2022/12/18 06:23:38;;;;;;;8.18;4.30;;;;;;;-2.58;76.11;99100.50;5086458;28;20040;-43
2022/12/18 06:26:06;;;;;;;7.88;4.20;;;;;;;-2.57;76.21;99097.13;5088528;28;20534;-43
2022/12/18 06:28:32;;;;;;;9.23;4.40;;;;;;;-2.57;76.10;99095.44;5087979;28;20058;-45
2022/12/18 06:30:58;;;;;;;7.57;3.65;;;;;;;-2.81;76.09;99062.13;5071659;28;20392;-47
2022/12/18 06:33:26;;;;;;;10.88;4.05;;;;;;;-2.62;76.23;99104.69;5093567;28;20036;-44
2022/12/18 06:35:52;;;;;;;11.15;4.70;;;;;;;-2.78;76.06;99074.88;5091514;28;20081;-44
2022/12/18 06:38:18;;;;;;;8.82;4.18;;;;;;;-2.65;76.20;99111.44;5081339;28;20067;-43
2022/12/18 06:40:44;;;;;;;8.65;4.22;;;;;;;-2.62;76.22;99104.69;5085163;28;20127;-44
2022/12/18 06:43:10;;;;;;;7.95;4.20;;;;;;;-2.65;76.27;99103.81;5077137;28;20046;-43
2022/12/18 06:45:36;;;;;;;7.90;3.72;;;;;;;-2.62;76.03;99119.13;5075062;28;20126;-44
2022/12/18 06:48:02;;;;;;;8.93;4.43;;;;;;;-2.82;75.84;99093.47;5105704;28;20043;-45
2022/12/18 06:50:28;;;;;;;7.07;3.92;;;;;;;-2.62;76.26;99136.94;5097172;28;20126;-43
2022/12/18 06:52:54;;;;;;;8.85;3.83;;;;;;;-2.61;75.76;99139.47;5099901;28;20032;-44
2022/12/18 06:55:20;;;;;;;9.50;4.38;;;;;;;-2.59;75.26;99153.06;5108356;28;20097;-42
2022/12/18 06:57:46;;;;;;;19.95;4.68;;;;;;;-2.59;75.33;99159.84;5108535;28;20447;-43
2022/12/18 07:00:13;;;;;;;10.77;4.95;;;;;;;-2.59;75.52;99158.16;5094639;28;20057;-43
2022/12/18 07:02:40;;;;;;;11.10;4.20;;;;;;;-2.56;75.33;99157.31;5102084;28;20515;-42
2022/12/18 07:05:06;;;;;;;8.90;4.22;;;;;;;-2.59;75.12;99168.34;5090833;28;20047;-41
2022/12/18 07:07:34;;;;;;;11.25;4.13;;;;;;;-2.56;75.07;99165.81;5095342;28;20044;-42
2022/12/18 07:10:00;;;;;;;8.65;4.10;;;;;;;-2.49;74.79;99176.03;5089059;28;20043;-42
2022/12/18 07:12:27;;;;;;;8.07;3.78;;;;;;;-2.83;74.79;99114.69;5090251;28;20423;-43
2022/12/18 07:14:53;;;;;;;8.43;4.10;;;;;;;-2.58;74.81;99164.97;5089585;28;20032;-43
2022/12/18 07:17:18;;;;;;;7.47;3.78;;;;;;;-2.44;74.80;99176.94;5056962;28;20043;-43
2022/12/18 07:19:44;;;;;;;7.10;3.80;;;;;;;-2.44;74.68;99171.84;5091338;28;20078;-47
2022/12/18 07:22:11;;;;;;;8.85;4.40;;;;;;;-2.42;74.24;99172.72;5073054;28;20047;-44
2022/12/18 07:24:37;;;;;;;10.05;4.72;;;;;;;-2.42;74.40;99178.69;5091886;28;20044;-46
2022/12/18 07:27:02;;;;;;;7.82;3.92;;;;;;;-2.71;73.81;99136.81;5091766;28;20047;-49
2022/12/18 07:29:28;;;;;;;8.55;3.92;;;;;;;-2.79;74.11;99131.69;5108915;28;20032;-43
2022/12/18 07:31:54;;;;;;;9.93;4.43;;;;;;;-2.41;73.85;99205.84;5097530;27;20072;-45
2022/12/18 07:34:20;;;;;;;8.93;3.97;;;;;;;-2.36;73.76;99218.59;5090581;28;20483;-42
2022/12/18 07:36:46;;;;;;;8.40;4.00;;;;;;;-2.30;73.77;99228.81;5094825;28;20044;-45
2022/12/18 07:39:12;;;;;;;7.93;3.83;;;;;;;-2.47;73.76;99192.19;5096918;28;20047;-48
2022/12/18 07:41:42;;;;;;;9.80;3.97;;;;;;;-2.28;73.51;99233.09;5107085;28;20039;-47
2022/12/18 07:44:12;;;;;;;9.48;3.95;;;;;;;-2.27;73.37;99227.19;5086352;28;20048;-43
2022/12/18 07:46:38;;;;;;;8.27;4.13;;;;;;;-2.56;73.17;99163.25;5091577;28;20062;-45
2022/12/18 07:49:04;;;;;;;8.02;4.13;;;;;;;-2.15;73.19;99221.34;5089683;28;20036;-49
2022/12/18 07:51:30;;;;;;;8.93;3.92;;;;;;;-2.34;73.18;99196.53;5107268;28;20603;-43
2022/12/18 07:53:56;;;;;;;8.82;4.22;;;;;;;-2.49;72.88;99168.41;5090405;28;20093;-42
2022/12/18 07:56:22;;;;;;;10.18;4.15;;;;;;;-2.27;72.91;99194.09;5069659;28;20037;-43
2022/12/18 07:58:48;;;;;;;7.57;3.83;;;;;;;-2.02;72.88;99235.03;5072419;28;20070;-44
2022/12/18 08:01:14;;;;;;;9.98;4.15;;;;;;;-2.00;72.85;99228.25;5101604;28;20580;-42
2022/12/18 08:03:41;;;;;;;7.35;3.90;;;;;;;-1.96;72.86;99215.56;5084922;28;20051;-40
2022/12/18 08:06:09;;;;;;;7.05;3.97;;;;;;;-1.96;72.70;99223.19;5098532;28;20059;-39
2022/12/18 08:08:35;;;;;;;7.95;3.45;;;;;;;-1.92;72.71;99231.72;5089147;28;20067;-42
2022/12/18 08:11:02;;;;;;;9.32;4.38;;;;;;;-2.13;72.70;99204.38;5098451;28;20120;-41
2022/12/18 08:13:28;;;;;;;7.57;3.92;;;;;;;-1.91;72.66;99249.56;5093952;28;20097;-41
2022/12/18 08:16:06;;;;;;;9.60;4.57;;;;;;;-1.85;72.67;99258.94;5104544;28;20035;-40
2022/12/18 08:18:33;;;;;;;9.32;3.88;;;;;;;-1.85;72.72;99254.72;5087085;28;20047;-40
2022/12/18 08:21:09;;;;;;;7.53;3.85;;;;;;;-2.15;72.67;99229.00;5054383;28;20101;-43
2022/12/18 08:23:35;;;;;;;8.95;4.07;;;;;;;-1.88;72.47;99280.13;5093688;28;20051;-40
2022/12/18 08:26:01;;;;;;;10.05;4.03;;;;;;;-1.87;72.62;99289.50;5093720;28;20096;-39
2022/12/18 08:28:27;;;;;;;7.70;3.92;;;;;;;-1.87;72.76;99289.50;5096094;28;20468;-41
2022/12/18 08:30:53;;;;;;;9.30;4.18;;;;;;;-1.85;72.87;99295.47;5098379;28;20040;-41
2022/12/18 08:33:18;;;;;;;8.10;3.92;;;;;;;-1.86;72.96;99306.50;5101263;28;20452;-41
2022/12/18 08:35:44;;;;;;;8.48;4.43;;;;;;;-1.82;72.91;99305.69;5088718;28;20097;-40
2022/12/18 08:38:10;;;;;;;7.85;3.92;;;;;;;-1.87;73.09;99312.41;5089456;28;20036;-41
2022/12/18 08:40:36;;;;;;;8.98;3.85;;;;;;;-1.84;72.95;99299.72;5098326;28;20047;-40
2022/12/18 08:45:46;;;;;;;9.35;5.03;;;;;;;-1.78;72.94;99307.41;5102378;27;20090;-42
2022/12/18 08:48:12;;;;;;;9.63;4.22;;;;;;;-1.77;73.10;99313.34;5071073;28;20079;-41
2022/12/18 08:50:38;;;;;;;15.80;6.20;;;;;;;-1.94;73.30;99282.66;5092741;28;20044;-42
2022/12/18 08:53:04;;;;;;;10.27;4.07;;;;;;;-1.76;72.98;99304.88;5087898;28;20264;-45
2022/12/18 08:55:30;;;;;;;8.93;4.10;;;;;;;-1.73;73.23;99308.28;5084114;28;20127;-43
2022/12/18 08:57:56;;;;;;;8.13;3.78;;;;;;;-1.69;73.45;99305.78;5092045;28;20116;-42
2022/12/18 09:00:22;;;;;;;8.68;4.10;;;;;;;-1.68;73.49;99312.59;5093283;28;20525;-41
2022/12/18 09:02:47;;;;;;;9.23;4.20;;;;;;;-1.64;73.42;99306.69;5091231;28;20040;-41
2022/12/18 09:05:14;;;;;;;6.68;4.05;;;;;;;-1.57;73.28;99321.19;5072892;28;20055;-43
2022/12/18 09:07:39;;;;;;;7.45;4.13;;;;;;;-1.54;73.27;99318.66;5089934;28;20040;-42
2022/12/18 09:10:06;;;;;;;7.10;3.95;;;;;;;-1.56;73.12;99330.53;5070489;28;20035;-43
2022/12/18 09:12:32;;;;;;;8.18;4.32;;;;;;;-1.51;73.22;99333.97;5088147;28;20032;-42
2022/12/18 09:14:58;;;;;;;8.38;3.40;;;;;;;-1.70;73.41;99294.75;5089478;28;20047;-42
2022/12/18 09:17:24;;;;;;;6.38;3.28;;;;;;;-1.46;73.33;99327.19;5091958;28;20040;-42
2022/12/18 09:19:49;;;;;;;7.10;3.65;;;;;;;-1.42;73.22;99336.59;5089674;28;20036;-41
2022/12/18 09:22:15;;;;;;;6.85;3.47;;;;;;;-1.45;73.44;99329.78;5089753;28;20039;-42
2022/12/18 09:24:41;;;;;;;7.95;3.60;;;;;;;-1.45;73.28;99339.97;5088509;28;20046;-43
2022/12/18 09:27:07;;;;;;;5.70;2.83;;;;;;;-1.44;73.21;99334.03;5083811;28;20040;-43
2022/12/18 09:29:33;;;;;;;5.75;2.97;;;;;;;-1.38;73.20;99348.53;5071646;28;20076;-41
2022/12/18 09:31:59;;;;;;;4.43;2.83;;;;;;;-1.42;73.00;99346.81;5071451;28;20515;-43
2022/12/18 09:34:24;;;;;;;7.95;3.58;;;;;;;-1.43;73.23;99347.63;5071649;28;20530;-42
2022/12/18 09:36:50;;;;;;;6.43;3.40;;;;;;;-1.36;73.04;99373.19;5091234;28;20039;-41
2022/12/18 09:39:16;;;;;;;5.10;3.20;;;;;;;-1.33;73.06;99380.88;5072359;28;20032;-41
2022/12/18 09:41:42;;;;;;;7.80;3.53;;;;;;;-1.31;73.04;99384.25;5088365;28;20431;-42
2022/12/18 09:44:19;;;;;;;6.85;3.55;;;;;;;-1.52;72.88;99355.22;5082167;28;20826;-42
2022/12/18 09:47:20;;;;;;;7.82;3.80;;;;;;;-1.30;73.11;99391.09;5089445;28;20040;-42
2022/12/18 09:49:47;;;;;;;7.25;3.90;;;;;;;-1.32;72.88;99391.94;5084758;28;20077;-43
2022/12/18 09:52:21;;;;;;;9.85;3.63;;;;;;;-1.35;72.99;99389.34;5074852;28;20121;-41
2022/12/18 09:54:58;;;;;;;6.75;3.30;;;;;;;-1.53;73.07;99387.50;5106589;28;20043;-42
2022/12/18 09:57:25;;;;;;;7.03;3.35;;;;;;;-1.51;73.06;99384.94;5090732;28;20047;-40
2022/12/18 10:00:21;;;;;;;7.30;3.33;;;;;;;-1.35;73.11;99407.19;5067959;28;20103;-43
2022/12/18 10:02:47;;;;;;;9.25;3.60;;;;;;;-1.37;72.95;99406.34;5065120;28;20436;-44
2022/12/18 10:05:16;;;;;;;7.72;3.78;;;;;;;-1.34;73.03;99412.31;5089815;28;20257;-41
2022/12/18 10:07:50;;;;;;;6.80;3.65;;;;;;;-1.36;72.97;99418.25;5096892;28;20071;-45
2022/12/18 10:10:37;;;;;;;8.75;4.10;;;;;;;-1.42;73.31;99410.53;5077610;28;20070;-41
2022/12/18 10:13:25;;;;;;;7.13;3.75;;;;;;;-1.43;73.29;99411.38;5096212;28;20335;-42
2022/12/18 10:16:03;;;;;;;7.72;3.60;;;;;;;-1.46;73.30;99411.31;5075913;28;20507;-42
2022/12/18 10:18:51;;;;;;;7.05;3.50;;;;;;;-1.45;73.37;99419.00;5066006;28;20058;-44
2022/12/18 10:21:39;;;;;;;7.75;3.30;;;;;;;-1.48;73.53;99418.13;5060944;28;20047;-41
2022/12/18 10:24:14;;;;;;;10.07;3.50;;;;;;;-1.50;73.33;99417.25;5083039;28;20137;-43
2022/12/18 10:26:41;;;;;;;7.70;3.78;;;;;;;-1.48;73.41;99429.19;5116362;27;20500;-42
2022/12/18 10:29:15;;;;;;;6.15;3.00;;;;;;;-1.78;73.66;99383.84;5100740;28;20036;-43
2022/12/18 10:31:40;;;;;;;8.15;3.17;;;;;;;-1.50;73.53;99417.25;5095792;28;20525;-42
2022/12/18 10:34:13;;;;;;;5.60;2.65;;;;;;;-1.93;73.62;99357.34;5095467;28;20123;-40
2022/12/18 10:36:38;;;;;;;7.95;3.63;;;;;;;-1.53;73.63;99427.41;5095804;28;20088;-43
2022/12/18 10:39:31;;;;;;;9.38;3.38;;;;;;;-1.57;73.73;99426.50;5107848;28;20473;-43
2022/12/18 10:42:12;;;;;;;7.53;4.07;;;;;;;-1.56;73.77;99430.78;5093025;28;20097;-43
2022/12/18 10:44:38;;;;;;;9.15;3.58;;;;;;;-1.58;73.38;99436.72;5083020;28;20055;-42
2022/12/18 10:47:06;;;;;;;8.35;3.90;;;;;;;-1.61;73.72;99434.97;5074030;28;20415;-42
2022/12/18 10:49:33;;;;;;;6.60;3.30;;;;;;;-1.62;73.82;99429.88;5106111;28;20040;-42
2022/12/18 10:52:14;;;;;;;8.82;3.80;;;;;;;-1.64;74.03;99434.97;5077463;28;20032;-44
2022/12/18 10:54:45;;;;;;;10.25;4.28;;;;;;;-1.68;74.19;99440.00;5078706;28;20439;-42
2022/12/18 10:57:36;;;;;;;9.23;3.60;;;;;;;-1.73;74.26;99440.78;5091399;28;20048;-42
2022/12/18 11:00:23;;;;;;;9.57;4.00;;;;;;;-1.75;74.62;99444.19;5107991;28;20135;-42
2022/12/18 11:02:49;;;;;;;7.80;4.03;;;;;;;-1.81;74.30;99447.50;5092249;28;20048;-42
2022/12/18 11:05:27;;;;;;;11.93;3.40;;;;;;;-1.77;74.57;99458.59;5100881;28;20047;-42
2022/12/18 11:07:56;;;;;;;7.18;3.55;;;;;;;-1.80;74.53;99461.13;5100299;28;20047;-41
2022/12/18 11:10:46;;;;;;;6.25;3.47;;;;;;;-1.79;74.79;99473.88;5102845;28;20129;-40
2022/12/18 11:13:24;;;;;;;6.85;3.97;;;;;;;-1.77;74.65;99468.78;5099857;27;20144;-41
2022/12/18 11:15:50;;;;;;;7.20;3.63;;;;;;;-1.80;74.46;99478.94;5115641;27;20051;-42
2022/12/18 11:18:26;;;;;;;10.05;3.78;;;;;;;-1.98;74.71;99459.19;5097996;28;20134;-41
2022/12/18 11:21:00;;;;;;;5.55;3.15;;;;;;;-1.93;74.74;99484.72;5090980;28;20641;-40
2022/12/18 11:23:26;;;;;;;6.90;3.63;;;;;;;-1.90;74.90;99493.28;5097252;28;20051;-41
2022/12/18 11:26:02;;;;;;;8.13;3.58;;;;;;;-1.89;74.99;99499.22;5104587;28;20673;-41
2022/12/18 11:28:51;;;;;;;7.88;3.65;;;;;;;-1.86;75.10;99499.25;5109170;28;20050;-40
2022/12/18 11:31:31;;;;;;;10.48;4.00;;;;;;;-1.82;75.02;99506.09;5112466;28;20063;-40
2022/12/18 11:34:05;;;;;;;7.95;3.67;;;;;;;-1.86;75.21;99505.19;5080084;28;20044;-41
2022/12/18 11:36:36;;;;;;;6.38;3.58;;;;;;;-2.00;75.13;99483.81;5095137;28;20040;-40
2022/12/18 11:39:11;;;;;;;6.22;3.17;;;;;;;-1.83;75.08;99501.81;5073688;28;20422;-42
2022/12/18 11:42:11;;;;;;;6.55;3.25;;;;;;;-1.85;75.12;99511.16;5084980;28;20521;-41
2022/12/18 11:44:58;;;;;;;9.10;3.78;;;;;;;-1.85;74.98;99511.16;5073864;28;20545;-38
2022/12/18 11:47:44;;;;;;;7.53;3.35;;;;;;;-1.82;75.07;99511.19;5065418;28;20795;-41
2022/12/18 11:50:15;;;;;;;6.50;2.53;;;;;;;-2.06;74.85;99478.63;5064796;28;20053;-48
2022/12/18 11:52:41;;;;;;;4.60;2.58;;;;;;;-1.91;74.86;99518.72;5081276;28;20788;-42